sensor_id;sensor_type;location;lat;lon;timestamp;P1;durP1;ratioP1;P2;durP2;ratioP2
58139;SDS011;53185;47.378;18.922;2022-08-21T00:00:16;2.47;;;1.83;;
58139;SDS011;53185;47.378;18.922;2022-08-21T00:02:47;3.35;;;2.00;;
58139;SDS011;53185;47.378;18.922;2022-08-21T00:05:19;2.33;;;2.10;;
58139;SDS011;53185;47.378;18.922;2022-08-21T00:07:46;2.60;;;2.22;;
58139;SDS011;53185;47.378;18.922;2022-08-21T00:10:13;2.55;;;2.15;;
58139;SDS011;53185;47.378;18.922;2022-08-21T00:12:42;2.83;;;2.10;;
58139;SDS011;53185;47.378;18.922;2022-08-21T00:15:14;2.20;;;2.00;;
58139;SDS011;53185;47.378;18.922;2022-08-21T00:17:44;2.85;;;2.05;;
58139;SDS011;53185;47.378;18.922;2022-08-21T00:20:11;2.30;;;2.10;;
58139;SDS011;53185;47.378;18.922;2022-08-21T00:22:40;3.07;;;2.30;;
58139;SDS011;53185;47.378;18.922;2022-08-21T00:25:11;2.90;;;2.30;;
58139;SDS011;53185;47.378;18.922;2022-08-21T00:27:39;3.10;;;2.42;;
58139;SDS011;53185;47.378;18.922;2022-08-21T00:30:12;4.97;;;2.27;;
58139;SDS011;53185;47.378;18.922;2022-08-21T00:32:49;2.95;;;2.40;;
58139;SDS011;53185;47.378;18.922;2022-08-21T00:35:24;4.45;;;2.20;;
58139;SDS011;53185;47.378;18.922;2022-08-21T00:37:54;2.90;;;2.33;;
58139;SDS011;53185;47.378;18.922;2022-08-21T00:40:24;2.60;;;2.40;;
58139;SDS011;53185;47.378;18.922;2022-08-21T00:42:53;3.12;;;2.60;;
58139;SDS011;53185;47.378;18.922;2022-08-21T00:45:21;4.97;;;2.22;;
58139;SDS011;53185;47.378;18.922;2022-08-21T00:47:50;3.12;;;2.62;;
58139;SDS011;53185;47.378;18.922;2022-08-21T00:50:17;2.83;;;2.28;;
58139;SDS011;53185;47.378;18.922;2022-08-21T00:52:49;4.00;;;2.65;;
58139;SDS011;53185;47.378;18.922;2022-08-21T00:55:18;5.37;;;2.67;;
58139;SDS011;53185;47.378;18.922;2022-08-21T00:57:53;4.25;;;2.87;;
58139;SDS011;53185;47.378;18.922;2022-08-21T01:00:24;3.40;;;2.85;;
58139;SDS011;53185;47.378;18.922;2022-08-21T01:02:57;3.60;;;2.50;;
58139;SDS011;53185;47.378;18.922;2022-08-21T01:05:26;3.55;;;2.50;;
58139;SDS011;53185;47.378;18.922;2022-08-21T01:07:53;2.67;;;2.35;;
58139;SDS011;53185;47.378;18.922;2022-08-21T01:10:23;3.08;;;2.30;;
58139;SDS011;53185;47.378;18.922;2022-08-21T01:12:52;6.15;;;3.22;;
58139;SDS011;53185;47.378;18.922;2022-08-21T01:15:19;3.35;;;2.80;;
58139;SDS011;53185;47.378;18.922;2022-08-21T01:17:49;3.70;;;2.67;;
58139;SDS011;53185;47.378;18.922;2022-08-21T01:20:16;5.35;;;2.78;;
58139;SDS011;53185;47.378;18.922;2022-08-21T01:22:43;4.37;;;3.10;;
58139;SDS011;53185;47.378;18.922;2022-08-21T01:25:10;4.00;;;3.15;;
58139;SDS011;53185;47.378;18.922;2022-08-21T01:27:41;4.15;;;3.12;;
58139;SDS011;53185;47.378;18.922;2022-08-21T01:32:45;5.53;;;3.10;;
58139;SDS011;53185;47.378;18.922;2022-08-21T01:35:15;5.07;;;3.80;;
58139;SDS011;53185;47.378;18.922;2022-08-21T01:37:45;4.93;;;3.22;;
58139;SDS011;53185;47.378;18.922;2022-08-21T01:40:14;5.87;;;3.67;;
58139;SDS011;53185;47.378;18.922;2022-08-21T01:42:42;4.32;;;3.08;;
58139;SDS011;53185;47.378;18.922;2022-08-21T01:45:13;6.18;;;2.90;;
58139;SDS011;53185;47.378;18.922;2022-08-21T01:47:44;6.12;;;3.30;;
58139;SDS011;53185;47.378;18.922;2022-08-21T01:50:17;4.97;;;3.35;;
58139;SDS011;53185;47.378;18.922;2022-08-21T01:52:45;5.78;;;3.37;;
58139;SDS011;53185;47.378;18.922;2022-08-21T01:55:13;5.20;;;3.67;;
58139;SDS011;53185;47.378;18.922;2022-08-21T01:57:43;4.12;;;3.47;;
58139;SDS011;53185;47.378;18.922;2022-08-21T02:00:14;10.70;;;3.72;;
58139;SDS011;53185;47.378;18.922;2022-08-21T02:02:43;6.03;;;3.60;;
58139;SDS011;53185;47.378;18.922;2022-08-21T02:05:11;6.50;;;4.40;;
58139;SDS011;53185;47.378;18.922;2022-08-21T02:07:43;4.82;;;3.42;;
58139;SDS011;53185;47.378;18.922;2022-08-21T02:10:21;6.50;;;3.40;;
58139;SDS011;53185;47.378;18.922;2022-08-21T02:12:49;5.28;;;3.42;;
58139;SDS011;53185;47.378;18.922;2022-08-21T02:15:16;5.10;;;3.28;;
58139;SDS011;53185;47.378;18.922;2022-08-21T02:17:48;5.35;;;3.65;;
58139;SDS011;53185;47.378;18.922;2022-08-21T02:20:19;6.00;;;4.10;;
58139;SDS011;53185;47.378;18.922;2022-08-21T02:22:50;5.97;;;3.53;;
58139;SDS011;53185;47.378;18.922;2022-08-21T02:25:19;11.10;;;3.60;;
58139;SDS011;53185;47.378;18.922;2022-08-21T02:27:46;9.00;;;4.25;;
58139;SDS011;53185;47.378;18.922;2022-08-21T02:30:19;10.43;;;4.53;;
58139;SDS011;53185;47.378;18.922;2022-08-21T02:32:48;5.65;;;3.65;;
58139;SDS011;53185;47.378;18.922;2022-08-21T02:35:15;7.53;;;3.45;;
58139;SDS011;53185;47.378;18.922;2022-08-21T02:37:46;5.22;;;4.12;;
58139;SDS011;53185;47.378;18.922;2022-08-21T02:40:17;7.47;;;3.87;;
58139;SDS011;53185;47.378;18.922;2022-08-21T02:42:45;5.00;;;3.83;;
58139;SDS011;53185;47.378;18.922;2022-08-21T02:45:12;10.77;;;3.70;;
58139;SDS011;53185;47.378;18.922;2022-08-21T02:47:46;7.47;;;4.25;;
58139;SDS011;53185;47.378;18.922;2022-08-21T02:50:26;8.40;;;4.28;;
58139;SDS011;53185;47.378;18.922;2022-08-21T02:52:55;7.18;;;4.15;;
58139;SDS011;53185;47.378;18.922;2022-08-21T02:55:23;7.25;;;4.25;;
58139;SDS011;53185;47.378;18.922;2022-08-21T02:57:53;6.25;;;4.40;;
58139;SDS011;53185;47.378;18.922;2022-08-21T03:00:22;7.80;;;3.80;;
58139;SDS011;53185;47.378;18.922;2022-08-21T03:02:50;5.97;;;4.50;;
58139;SDS011;53185;47.378;18.922;2022-08-21T03:05:19;7.43;;;4.68;;
58139;SDS011;53185;47.378;18.922;2022-08-21T03:07:47;7.80;;;4.68;;
58139;SDS011;53185;47.378;18.922;2022-08-21T03:10:14;8.82;;;4.50;;
58139;SDS011;53185;47.378;18.922;2022-08-21T03:12:42;6.55;;;4.30;;
58139;SDS011;53185;47.378;18.922;2022-08-21T03:15:13;7.10;;;4.55;;
58139;SDS011;53185;47.378;18.922;2022-08-21T03:17:44;9.73;;;4.68;;
58139;SDS011;53185;47.378;18.922;2022-08-21T03:20:14;6.68;;;4.32;;
58139;SDS011;53185;47.378;18.922;2022-08-21T03:22:42;6.12;;;3.85;;
58139;SDS011;53185;47.378;18.922;2022-08-21T03:25:19;6.10;;;4.80;;
58139;SDS011;53185;47.378;18.922;2022-08-21T03:28:08;7.43;;;4.05;;
58139;SDS011;53185;47.378;18.922;2022-08-21T03:30:40;7.78;;;4.28;;
58139;SDS011;53185;47.378;18.922;2022-08-21T03:33:08;6.57;;;4.28;;
58139;SDS011;53185;47.378;18.922;2022-08-21T03:35:42;8.70;;;4.37;;
58139;SDS011;53185;47.378;18.922;2022-08-21T03:38:10;7.27;;;4.80;;
58139;SDS011;53185;47.378;18.922;2022-08-21T03:40:40;7.75;;;4.93;;
58139;SDS011;53185;47.378;18.922;2022-08-21T03:43:08;7.45;;;4.75;;
58139;SDS011;53185;47.378;18.922;2022-08-21T03:45:36;7.15;;;4.32;;
58139;SDS011;53185;47.378;18.922;2022-08-21T03:48:04;6.60;;;4.75;;
58139;SDS011;53185;47.378;18.922;2022-08-21T03:50:34;7.27;;;4.77;;
58139;SDS011;53185;47.378;18.922;2022-08-21T03:53:07;7.93;;;4.55;;
58139;SDS011;53185;47.378;18.922;2022-08-21T03:55:47;7.15;;;4.87;;
58139;SDS011;53185;47.378;18.922;2022-08-21T03:58:16;7.75;;;5.25;;
58139;SDS011;53185;47.378;18.922;2022-08-21T04:00:45;7.43;;;4.82;;
58139;SDS011;53185;47.378;18.922;2022-08-21T04:03:13;5.65;;;4.15;;
58139;SDS011;53185;47.378;18.922;2022-08-21T04:05:41;10.35;;;4.47;;
58139;SDS011;53185;47.378;18.922;2022-08-21T04:08:08;13.15;;;5.28;;
58139;SDS011;53185;47.378;18.922;2022-08-21T04:10:36;8.32;;;4.97;;
58139;SDS011;53185;47.378;18.922;2022-08-21T04:13:04;9.15;;;5.12;;
58139;SDS011;53185;47.378;18.922;2022-08-21T04:15:32;8.88;;;5.22;;
58139;SDS011;53185;47.378;18.922;2022-08-21T04:18:00;6.53;;;4.57;;
58139;SDS011;53185;47.378;18.922;2022-08-21T04:20:27;8.68;;;5.10;;
58139;SDS011;53185;47.378;18.922;2022-08-21T04:22:54;8.45;;;4.90;;
58139;SDS011;53185;47.378;18.922;2022-08-21T04:25:22;8.45;;;5.32;;
58139;SDS011;53185;47.378;18.922;2022-08-21T04:27:49;9.13;;;5.12;;
58139;SDS011;53185;47.378;18.922;2022-08-21T04:30:17;8.65;;;5.03;;
58139;SDS011;53185;47.378;18.922;2022-08-21T04:32:48;13.00;;;5.25;;
58139;SDS011;53185;47.378;18.922;2022-08-21T04:35:18;9.63;;;5.47;;
58139;SDS011;53185;47.378;18.922;2022-08-21T04:37:47;9.50;;;5.20;;
58139;SDS011;53185;47.378;18.922;2022-08-21T04:40:15;9.65;;;5.45;;
58139;SDS011;53185;47.378;18.922;2022-08-21T04:42:44;8.40;;;5.30;;
58139;SDS011;53185;47.378;18.922;2022-08-21T04:45:20;10.07;;;5.85;;
58139;SDS011;53185;47.378;18.922;2022-08-21T04:47:51;8.65;;;4.95;;
58139;SDS011;53185;47.378;18.922;2022-08-21T04:50:20;6.37;;;5.20;;
58139;SDS011;53185;47.378;18.922;2022-08-21T04:52:51;11.55;;;5.65;;
58139;SDS011;53185;47.378;18.922;2022-08-21T04:55:19;8.02;;;5.20;;
58139;SDS011;53185;47.378;18.922;2022-08-21T04:57:47;7.97;;;5.10;;
58139;SDS011;53185;47.378;18.922;2022-08-21T05:00:15;7.07;;;5.25;;
58139;SDS011;53185;47.378;18.922;2022-08-21T05:02:45;10.65;;;5.12;;
58139;SDS011;53185;47.378;18.922;2022-08-21T05:05:16;7.90;;;5.22;;
58139;SDS011;53185;47.378;18.922;2022-08-21T05:07:43;6.78;;;4.47;;
58139;SDS011;53185;47.378;18.922;2022-08-21T05:10:11;6.55;;;4.50;;
58139;SDS011;53185;47.378;18.922;2022-08-21T05:12:41;8.32;;;4.47;;
58139;SDS011;53185;47.378;18.922;2022-08-21T05:15:11;7.70;;;4.47;;
58139;SDS011;53185;47.378;18.922;2022-08-21T05:17:40;6.47;;;4.18;;
58139;SDS011;53185;47.378;18.922;2022-08-21T05:20:08;12.68;;;4.00;;
58139;SDS011;53185;47.378;18.922;2022-08-21T05:22:41;5.93;;;4.03;;
58139;SDS011;53185;47.378;18.922;2022-08-21T05:25:11;8.15;;;4.25;;
58139;SDS011;53185;47.378;18.922;2022-08-21T05:27:42;6.87;;;4.22;;
58139;SDS011;53185;47.378;18.922;2022-08-21T05:30:12;5.87;;;3.30;;
58139;SDS011;53185;47.378;18.922;2022-08-21T05:32:39;4.35;;;3.95;;
58139;SDS011;53185;47.378;18.922;2022-08-21T05:35:06;5.65;;;3.40;;
58139;SDS011;53185;47.378;18.922;2022-08-21T05:37:37;8.65;;;3.37;;
58139;SDS011;53185;47.378;18.922;2022-08-21T05:40:06;5.40;;;3.72;;
58139;SDS011;53185;47.378;18.922;2022-08-21T05:42:49;4.47;;;3.37;;
58139;SDS011;53185;47.378;18.922;2022-08-21T05:45:24;4.97;;;3.40;;
58139;SDS011;53185;47.378;18.922;2022-08-21T05:48:13;4.07;;;3.33;;
58139;SDS011;53185;47.378;18.922;2022-08-21T05:50:44;6.32;;;3.92;;
58139;SDS011;53185;47.378;18.922;2022-08-21T05:53:13;8.07;;;3.92;;
58139;SDS011;53185;47.378;18.922;2022-08-21T05:55:42;4.10;;;3.33;;
58139;SDS011;53185;47.378;18.922;2022-08-21T05:58:16;6.55;;;3.60;;
58139;SDS011;53185;47.378;18.922;2022-08-21T06:00:45;4.93;;;3.17;;
58139;SDS011;53185;47.378;18.922;2022-08-21T06:03:18;4.57;;;3.67;;
58139;SDS011;53185;47.378;18.922;2022-08-21T06:05:49;4.70;;;3.35;;
58139;SDS011;53185;47.378;18.922;2022-08-21T06:08:16;4.75;;;3.47;;
58139;SDS011;53185;47.378;18.922;2022-08-21T06:10:44;6.65;;;3.20;;
58139;SDS011;53185;47.378;18.922;2022-08-21T06:13:12;3.85;;;3.20;;
58139;SDS011;53185;47.378;18.922;2022-08-21T06:15:41;5.12;;;3.83;;
58139;SDS011;53185;47.378;18.922;2022-08-21T06:18:08;7.35;;;3.75;;
58139;SDS011;53185;47.378;18.922;2022-08-21T06:20:35;3.67;;;3.00;;
58139;SDS011;53185;47.378;18.922;2022-08-21T06:23:02;4.32;;;3.35;;
58139;SDS011;53185;47.378;18.922;2022-08-21T06:25:29;4.95;;;3.30;;
58139;SDS011;53185;47.378;18.922;2022-08-21T06:28:03;4.45;;;3.40;;
58139;SDS011;53185;47.378;18.922;2022-08-21T06:30:32;5.62;;;3.62;;
58139;SDS011;53185;47.378;18.922;2022-08-21T06:32:59;6.47;;;3.55;;
58139;SDS011;53185;47.378;18.922;2022-08-21T06:35:26;3.70;;;2.90;;
58139;SDS011;53185;47.378;18.922;2022-08-21T06:37:56;5.72;;;3.35;;
58139;SDS011;53185;47.378;18.922;2022-08-21T06:40:24;4.05;;;3.42;;
58139;SDS011;53185;47.378;18.922;2022-08-21T06:42:52;5.75;;;3.28;;
58139;SDS011;53185;47.378;18.922;2022-08-21T06:45:19;4.50;;;3.47;;
58139;SDS011;53185;47.378;18.922;2022-08-21T06:47:47;4.90;;;3.90;;
58139;SDS011;53185;47.378;18.922;2022-08-21T06:50:13;4.60;;;3.28;;
58139;SDS011;53185;47.378;18.922;2022-08-21T06:52:41;3.58;;;3.15;;
58139;SDS011;53185;47.378;18.922;2022-08-21T06:55:08;4.53;;;3.00;;
58139;SDS011;53185;47.378;18.922;2022-08-21T06:57:47;8.93;;;3.17;;
58139;SDS011;53185;47.378;18.922;2022-08-21T07:00:18;4.47;;;3.10;;
58139;SDS011;53185;47.378;18.922;2022-08-21T07:02:45;5.68;;;3.45;;
58139;SDS011;53185;47.378;18.922;2022-08-21T07:05:16;4.43;;;3.70;;
58139;SDS011;53185;47.378;18.922;2022-08-21T07:07:44;7.60;;;3.42;;
58139;SDS011;53185;47.378;18.922;2022-08-21T07:10:12;5.72;;;3.28;;
58139;SDS011;53185;47.378;18.922;2022-08-21T07:12:49;3.80;;;3.20;;
58139;SDS011;53185;47.378;18.922;2022-08-21T07:15:26;5.50;;;3.90;;
58139;SDS011;53185;47.378;18.922;2022-08-21T07:20:24;4.97;;;3.45;;
58139;SDS011;53185;47.378;18.922;2022-08-21T07:22:51;4.90;;;4.05;;
58139;SDS011;53185;47.378;18.922;2022-08-21T07:25:18;4.55;;;3.90;;
58139;SDS011;53185;47.378;18.922;2022-08-21T07:27:45;4.62;;;3.80;;
58139;SDS011;53185;47.378;18.922;2022-08-21T07:30:12;5.15;;;3.90;;
58139;SDS011;53185;47.378;18.922;2022-08-21T07:32:40;4.75;;;3.90;;
58139;SDS011;53185;47.378;18.922;2022-08-21T07:35:07;4.07;;;3.50;;
58139;SDS011;53185;47.378;18.922;2022-08-21T07:37:37;4.32;;;3.50;;
58139;SDS011;53185;47.378;18.922;2022-08-21T07:40:06;4.82;;;4.00;;
58139;SDS011;53185;47.378;18.922;2022-08-21T07:42:33;7.40;;;4.00;;
58139;SDS011;53185;47.378;18.922;2022-08-21T07:45:00;4.87;;;3.85;;
58139;SDS011;53185;47.378;18.922;2022-08-21T07:47:28;11.57;;;5.65;;
58139;SDS011;53185;47.378;18.922;2022-08-21T07:50:08;5.68;;;4.62;;
58139;SDS011;53185;47.378;18.922;2022-08-21T07:52:38;5.70;;;3.20;;
58139;SDS011;53185;47.378;18.922;2022-08-21T07:55:13;5.40;;;3.58;;
58139;SDS011;53185;47.378;18.922;2022-08-21T07:57:45;4.15;;;3.60;;
58139;SDS011;53185;47.378;18.922;2022-08-21T08:00:18;4.40;;;3.75;;
58139;SDS011;53185;47.378;18.922;2022-08-21T08:02:48;7.50;;;5.85;;
58139;SDS011;53185;47.378;18.922;2022-08-21T08:05:17;5.80;;;3.78;;
58139;SDS011;53185;47.378;18.922;2022-08-21T08:07:48;4.97;;;3.92;;
58139;SDS011;53185;47.378;18.922;2022-08-21T08:10:15;4.55;;;3.90;;
58139;SDS011;53185;47.378;18.922;2022-08-21T08:12:42;6.10;;;3.85;;
58139;SDS011;53185;47.378;18.922;2022-08-21T08:15:17;6.82;;;4.30;;
58139;SDS011;53185;47.378;18.922;2022-08-21T08:17:45;4.25;;;3.20;;
58139;SDS011;53185;47.378;18.922;2022-08-21T08:20:14;6.75;;;4.05;;
58139;SDS011;53185;47.378;18.922;2022-08-21T08:22:45;5.07;;;3.92;;
58139;SDS011;53185;47.378;18.922;2022-08-21T08:25:16;5.87;;;3.90;;
58139;SDS011;53185;47.378;18.922;2022-08-21T08:27:45;9.77;;;4.80;;
58139;SDS011;53185;47.378;18.922;2022-08-21T08:30:15;4.05;;;3.45;;
58139;SDS011;53185;47.378;18.922;2022-08-21T08:32:44;4.30;;;3.67;;
58139;SDS011;53185;47.378;18.922;2022-08-21T08:35:14;7.75;;;3.78;;
58139;SDS011;53185;47.378;18.922;2022-08-21T08:40:35;4.87;;;3.58;;
58139;SDS011;53185;47.378;18.922;2022-08-21T08:43:08;5.80;;;4.47;;
58139;SDS011;53185;47.378;18.922;2022-08-21T08:45:42;9.18;;;4.62;;
58139;SDS011;53185;47.378;18.922;2022-08-21T08:48:13;9.23;;;6.00;;
58139;SDS011;53185;47.378;18.922;2022-08-21T08:50:47;7.95;;;5.68;;
58139;SDS011;53185;47.378;18.922;2022-08-21T08:53:30;5.93;;;4.50;;
58139;SDS011;53185;47.378;18.922;2022-08-21T08:56:00;6.97;;;4.12;;
58139;SDS011;53185;47.378;18.922;2022-08-21T08:58:32;7.00;;;4.30;;
58139;SDS011;53185;47.378;18.922;2022-08-21T09:01:00;6.18;;;4.28;;
58139;SDS011;53185;47.378;18.922;2022-08-21T09:03:28;8.15;;;4.80;;
58139;SDS011;53185;47.378;18.922;2022-08-21T09:05:57;8.23;;;4.22;;
58139;SDS011;53185;47.378;18.922;2022-08-21T09:08:34;8.45;;;4.50;;
58139;SDS011;53185;47.378;18.922;2022-08-21T09:11:13;6.30;;;4.78;;
58139;SDS011;53185;47.378;18.922;2022-08-21T09:14:10;6.15;;;4.95;;
58139;SDS011;53185;47.378;18.922;2022-08-21T09:19:36;5.45;;;4.32;;
58139;SDS011;53185;47.378;18.922;2022-08-21T09:22:23;8.25;;;4.78;;
58139;SDS011;53185;47.378;18.922;2022-08-21T09:27:30;5.87;;;4.32;;
58139;SDS011;53185;47.378;18.922;2022-08-21T09:29:58;11.12;;;4.82;;
58139;SDS011;53185;47.378;18.922;2022-08-21T09:32:29;11.00;;;4.85;;
58139;SDS011;53185;47.378;18.922;2022-08-21T09:35:15;5.10;;;4.28;;
58139;SDS011;53185;47.378;18.922;2022-08-21T09:37:58;6.70;;;5.60;;
58139;SDS011;53185;47.378;18.922;2022-08-21T09:40:44;6.57;;;4.90;;
58139;SDS011;53185;47.378;18.922;2022-08-21T09:43:20;7.32;;;5.22;;
58139;SDS011;53185;47.378;18.922;2022-08-21T09:46:01;10.45;;;5.20;;
58139;SDS011;53185;47.378;18.922;2022-08-21T09:48:44;6.62;;;4.47;;
58139;SDS011;53185;47.378;18.922;2022-08-21T09:53:55;6.30;;;4.70;;
58139;SDS011;53185;47.378;18.922;2022-08-21T09:56:28;11.57;;;3.87;;
58139;SDS011;53185;47.378;18.922;2022-08-21T10:01:53;6.72;;;4.35;;
58139;SDS011;53185;47.378;18.922;2022-08-21T10:04:26;5.43;;;4.40;;
58139;SDS011;53185;47.378;18.922;2022-08-21T10:07:05;5.65;;;4.22;;
58139;SDS011;53185;47.378;18.922;2022-08-21T10:09:36;7.72;;;4.57;;
58139;SDS011;53185;47.378;18.922;2022-08-21T10:12:09;6.72;;;4.15;;
58139;SDS011;53185;47.378;18.922;2022-08-21T10:14:51;6.10;;;4.80;;
58139;SDS011;53185;47.378;18.922;2022-08-21T10:17:51;8.30;;;4.30;;
58139;SDS011;53185;47.378;18.922;2022-08-21T10:20:32;7.32;;;6.22;;
58139;SDS011;53185;47.378;18.922;2022-08-21T10:25:52;7.78;;;4.30;;
58139;SDS011;53185;47.378;18.922;2022-08-21T10:31:39;5.15;;;3.92;;
58139;SDS011;53185;47.378;18.922;2022-08-21T10:37:30;6.75;;;4.45;;
58139;SDS011;53185;47.378;18.922;2022-08-21T10:45:57;8.63;;;4.90;;
58139;SDS011;53185;47.378;18.922;2022-08-21T10:53:45;6.87;;;4.62;;
58139;SDS011;53185;47.378;18.922;2022-08-21T10:56:21;10.27;;;5.60;;
58139;SDS011;53185;47.378;18.922;2022-08-21T11:06:46;6.22;;;5.03;;
58139;SDS011;53185;47.378;18.922;2022-08-21T11:09:18;9.00;;;6.55;;
58139;SDS011;53185;47.378;18.922;2022-08-21T11:17:16;9.80;;;5.68;;
58139;SDS011;53185;47.378;18.922;2022-08-21T11:19:49;9.18;;;5.60;;
58139;SDS011;53185;47.378;18.922;2022-08-21T11:25:20;23.73;;;15.52;;
58139;SDS011;53185;47.378;18.922;2022-08-21T11:27:54;32.47;;;22.13;;
58139;SDS011;53185;47.378;18.922;2022-08-21T11:30:31;12.98;;;9.68;;
58139;SDS011;53185;47.378;18.922;2022-08-21T11:35:58;8.98;;;6.80;;
58139;SDS011;53185;47.378;18.922;2022-08-21T11:38:41;8.30;;;5.20;;
58139;SDS011;53185;47.378;18.922;2022-08-21T11:46:48;7.22;;;4.40;;
58139;SDS011;53185;47.378;18.922;2022-08-21T11:49:25;7.00;;;4.75;;
58139;SDS011;53185;47.378;18.922;2022-08-21T11:52:16;9.13;;;7.37;;
58139;SDS011;53185;47.378;18.922;2022-08-21T11:58:10;11.18;;;7.25;;
58139;SDS011;53185;47.378;18.922;2022-08-21T12:00:46;12.57;;;5.50;;
58139;SDS011;53185;47.378;18.922;2022-08-21T12:03:17;11.32;;;6.55;;
58139;SDS011;53185;47.378;18.922;2022-08-21T12:05:53;11.00;;;6.93;;
58139;SDS011;53185;47.378;18.922;2022-08-21T12:08:27;13.55;;;9.30;;
58139;SDS011;53185;47.378;18.922;2022-08-21T12:11:45;10.30;;;6.93;;
58139;SDS011;53185;47.378;18.922;2022-08-21T12:13:54;6.20;;;5.32;;
58139;SDS011;53185;47.378;18.922;2022-08-21T12:16:40;9.52;;;5.15;;
58139;SDS011;53185;47.378;18.922;2022-08-21T12:24:16;11.02;;;6.37;;
58139;SDS011;53185;47.378;18.922;2022-08-21T12:26:57;17.27;;;8.02;;
58139;SDS011;53185;47.378;18.922;2022-08-21T12:31:59;12.25;;;7.15;;
58139;SDS011;53185;47.378;18.922;2022-08-21T12:34:34;9.55;;;6.72;;
58139;SDS011;53185;47.378;18.922;2022-08-21T12:37:04;8.63;;;6.07;;
58139;SDS011;53185;47.378;18.922;2022-08-21T12:39:51;13.38;;;7.47;;
58139;SDS011;53185;47.378;18.922;2022-08-21T12:44:59;9.98;;;6.53;;
58139;SDS011;53185;47.378;18.922;2022-08-21T12:50:21;15.23;;;7.07;;
58139;SDS011;53185;47.378;18.922;2022-08-21T12:53:06;9.93;;;5.53;;
58139;SDS011;53185;47.378;18.922;2022-08-21T12:55:47;11.43;;;5.50;;
58139;SDS011;53185;47.378;18.922;2022-08-21T12:58:21;8.57;;;7.03;;
58139;SDS011;53185;47.378;18.922;2022-08-21T13:00:58;9.73;;;5.45;;
58139;SDS011;53185;47.378;18.922;2022-08-21T13:03:28;8.30;;;4.82;;
58139;SDS011;53185;47.378;18.922;2022-08-21T13:05:57;8.73;;;5.82;;
58139;SDS011;53185;47.378;18.922;2022-08-21T13:08:25;10.50;;;4.97;;
58139;SDS011;53185;47.378;18.922;2022-08-21T13:11:10;6.22;;;4.57;;
58139;SDS011;53185;47.378;18.922;2022-08-21T13:13:58;6.12;;;3.72;;
58139;SDS011;53185;47.378;18.922;2022-08-21T13:16:31;5.57;;;3.87;;
58139;SDS011;53185;47.378;18.922;2022-08-21T13:19:05;8.45;;;5.03;;
58139;SDS011;53185;47.378;18.922;2022-08-21T13:21:41;8.13;;;4.43;;
58139;SDS011;53185;47.378;18.922;2022-08-21T13:24:20;8.32;;;5.93;;
58139;SDS011;53185;47.378;18.922;2022-08-21T13:27:17;12.70;;;10.43;;
58139;SDS011;53185;47.378;18.922;2022-08-21T13:29:46;7.60;;;6.03;;
58139;SDS011;53185;47.378;18.922;2022-08-21T13:32:21;10.40;;;5.50;;
58139;SDS011;53185;47.378;18.922;2022-08-21T13:34:50;15.15;;;9.07;;
58139;SDS011;53185;47.378;18.922;2022-08-21T13:37:19;7.83;;;5.13;;
58139;SDS011;53185;47.378;18.922;2022-08-21T13:39:51;6.72;;;5.82;;
58139;SDS011;53185;47.378;18.922;2022-08-21T13:42:19;3.80;;;3.40;;
58139;SDS011;53185;47.378;18.922;2022-08-21T13:44:46;4.18;;;3.78;;
58139;SDS011;53185;47.378;18.922;2022-08-21T13:47:14;5.32;;;3.33;;
58139;SDS011;53185;47.378;18.922;2022-08-21T13:49:43;7.75;;;3.47;;
58139;SDS011;53185;47.378;18.922;2022-08-21T13:52:16;3.65;;;3.15;;
58139;SDS011;53185;47.378;18.922;2022-08-21T13:54:56;9.93;;;4.97;;
58139;SDS011;53185;47.378;18.922;2022-08-21T13:57:32;5.05;;;3.87;;
58139;SDS011;53185;47.378;18.922;2022-08-21T14:00:10;4.00;;;3.12;;
58139;SDS011;53185;47.378;18.922;2022-08-21T14:02:45;5.87;;;3.20;;
58139;SDS011;53185;47.378;18.922;2022-08-21T14:05:27;3.30;;;3.00;;
58139;SDS011;53185;47.378;18.922;2022-08-21T14:08:47;7.90;;;3.15;;
58139;SDS011;53185;47.378;18.922;2022-08-21T14:10:56;9.43;;;6.18;;
58139;SDS011;53185;47.378;18.922;2022-08-21T14:16:14;9.30;;;6.30;;
58139;SDS011;53185;47.378;18.922;2022-08-21T14:18:43;4.32;;;3.35;;
58139;SDS011;53185;47.378;18.922;2022-08-21T14:21:11;7.95;;;3.50;;
58139;SDS011;53185;47.378;18.922;2022-08-21T14:23:39;6.95;;;3.25;;
58139;SDS011;53185;47.378;18.922;2022-08-21T14:26:08;11.43;;;2.70;;
58139;SDS011;53185;47.378;18.922;2022-08-21T14:28:41;4.70;;;2.50;;
58139;SDS011;53185;47.378;18.922;2022-08-21T14:31:52;3.42;;;2.55;;
58139;SDS011;53185;47.378;18.922;2022-08-21T14:34:00;3.45;;;2.40;;
58139;SDS011;53185;47.378;18.922;2022-08-21T14:36:28;4.75;;;1.83;;
58139;SDS011;53185;47.378;18.922;2022-08-21T14:38:55;4.53;;;2.28;;
58139;SDS011;53185;47.378;18.922;2022-08-21T14:41:22;1.90;;;1.58;;
58139;SDS011;53185;47.378;18.922;2022-08-21T14:43:51;2.57;;;1.70;;
58139;SDS011;53185;47.378;18.922;2022-08-21T14:48:59;2.85;;;1.35;;
58139;SDS011;53185;47.378;18.922;2022-08-21T14:51:26;1.60;;;1.50;;
58139;SDS011;53185;47.378;18.922;2022-08-21T14:53:52;2.85;;;1.60;;
58139;SDS011;53185;47.378;18.922;2022-08-21T14:56:20;3.17;;;1.73;;
58139;SDS011;53185;47.378;18.922;2022-08-21T14:58:47;3.10;;;1.98;;
58139;SDS011;53185;47.378;18.922;2022-08-21T15:01:16;1.90;;;1.70;;
58139;SDS011;53185;47.378;18.922;2022-08-21T15:03:45;3.45;;;1.60;;
58139;SDS011;53185;47.378;18.922;2022-08-21T15:06:15;2.20;;;1.87;;
58139;SDS011;53185;47.378;18.922;2022-08-21T15:08:44;2.60;;;1.50;;
58139;SDS011;53185;47.378;18.922;2022-08-21T15:11:11;1.95;;;1.45;;
58139;SDS011;53185;47.378;18.922;2022-08-21T15:14:00;1.77;;;1.42;;
58139;SDS011;53185;47.378;18.922;2022-08-21T15:18:59;2.20;;;1.55;;
58139;SDS011;53185;47.378;18.922;2022-08-21T15:21:26;2.28;;;1.17;;
58139;SDS011;53185;47.378;18.922;2022-08-21T15:23:53;3.00;;;1.87;;
58139;SDS011;53185;47.378;18.922;2022-08-21T15:26:21;3.12;;;2.05;;
58139;SDS011;53185;47.378;18.922;2022-08-21T15:28:49;2.95;;;1.60;;
58139;SDS011;53185;47.378;18.922;2022-08-21T15:31:16;5.85;;;1.50;;
58139;SDS011;53185;47.378;18.922;2022-08-21T15:33:43;3.08;;;1.60;;
58139;SDS011;53185;47.378;18.922;2022-08-21T15:36:10;3.20;;;1.92;;
58139;SDS011;53185;47.378;18.922;2022-08-21T15:38:37;10.40;;;5.37;;
58139;SDS011;53185;47.378;18.922;2022-08-21T15:41:04;5.28;;;1.80;;
58139;SDS011;53185;47.378;18.922;2022-08-21T15:43:37;4.60;;;1.92;;
58139;SDS011;53185;47.378;18.922;2022-08-21T15:46:13;4.28;;;2.40;;
58139;SDS011;53185;47.378;18.922;2022-08-21T15:48:41;3.25;;;2.00;;
58139;SDS011;53185;47.378;18.922;2022-08-21T15:51:09;3.87;;;2.70;;
58139;SDS011;53185;47.378;18.922;2022-08-21T15:53:37;1.60;;;1.50;;
58139;SDS011;53185;47.378;18.922;2022-08-21T15:56:07;2.30;;;2.10;;
58139;SDS011;53185;47.378;18.922;2022-08-21T15:58:40;2.40;;;2.10;;
58139;SDS011;53185;47.378;18.922;2022-08-21T16:01:07;5.87;;;2.50;;
58139;SDS011;53185;47.378;18.922;2022-08-21T16:03:34;4.07;;;2.20;;
58139;SDS011;53185;47.378;18.922;2022-08-21T16:06:01;2.72;;;2.37;;
58139;SDS011;53185;47.378;18.922;2022-08-21T16:08:28;3.08;;;1.95;;
58139;SDS011;53185;47.378;18.922;2022-08-21T16:10:55;2.10;;;1.90;;
58139;SDS011;53185;47.378;18.922;2022-08-21T16:13:24;2.70;;;2.05;;
58139;SDS011;53185;47.378;18.922;2022-08-21T16:15:53;1.90;;;1.70;;
58139;SDS011;53185;47.378;18.922;2022-08-21T16:18:20;4.05;;;1.73;;
58139;SDS011;53185;47.378;18.922;2022-08-21T16:20:49;2.85;;;2.12;;
58139;SDS011;53185;47.378;18.922;2022-08-21T16:23:16;2.70;;;1.90;;
58139;SDS011;53185;47.378;18.922;2022-08-21T16:25:43;3.22;;;2.30;;